Time;durP1;ratioP1;P1;durP2;ratioP2;P2;SDS_P1;SDS_P2;PMS_P1;PMS_P2;Temp;Humidity;BMP_temperature;BMP_pressure;BME280_temperature;BME280_humidity;BME280_pressure;Samples;Min_cycle;Max_cycle;Signal;HPM_P1;HPM_P2
2023/05/31 00:00:28;;;;;;;;;;;;;;;20.80;39.80;101770.91;4112876;28;20283;-58
2023/05/31 00:02:30;;;;;;;;;;;;;;;20.80;39.76;101770.91;4128677;28;19932;-58
2023/05/31 00:04:32;;;;;;;;;;;;;;;20.79;39.91;101763.00;4169275;28;20188;-59
2023/05/31 00:06:35;;;;;;;;;;;;;;;20.77;40.13;101757.75;4112986;28;19931;-59
2023/05/31 00:08:37;;;;;;;;;;;;;;;20.77;39.89;101759.53;4168596;28;19928;-59
2023/05/31 00:10:38;;;;;;;;;;;;;;;20.76;40.16;101760.53;4119961;28;19930;-59
2023/05/31 00:12:40;;;;;;;;;;;;;;;20.74;40.18;101764.16;4121530;28;19933;-58
2023/05/31 00:14:43;;;;;;;;;;;;;;;20.72;40.19;101759.84;4166085;28;20400;-59
2023/05/31 00:16:45;;;;;;;;;;;;;;;20.72;40.26;101765.22;4113428;28;19926;-57
2023/05/31 00:19:06;;;;;;;;;;;;;;;20.71;39.94;101760.78;4175535;28;19928;-58
2023/05/31 00:21:08;;;;;;;;;;;;;;;20.72;39.97;101765.22;4111528;28;20479;-58
2023/05/31 00:23:10;;;;;;;;;;;;;;;20.70;39.96;101767.06;4128148;28;19946;-58
2023/05/31 00:25:12;;;;;;;;;;;;;;;20.68;39.83;101764.50;4161049;28;19939;-58
2023/05/31 00:27:13;;;;;;;;;;;;;;;20.66;39.78;101762.88;4113386;28;19926;-58
2023/05/31 00:29:15;;;;;;;;;;;;;;;20.65;39.89;101758.47;4166299;28;19924;-58
2023/05/31 00:31:16;;;;;;;;;;;;;;;20.66;40.40;101765.56;4121249;28;19930;-59
2023/05/31 00:33:18;;;;;;;;;;;;;;;20.65;40.16;101759.31;4119975;28;19927;-58
2023/05/31 00:35:20;;;;;;;;;;;;;;;20.65;40.46;101761.16;4140827;28;19963;-59
2023/05/31 00:37:21;;;;;;;;;;;;;;;20.64;40.35;101757.59;4197055;28;19925;-58
2023/05/31 00:39:23;;;;;;;;;;;;;;;20.64;40.22;101762.09;4169014;28;19928;-58
2023/05/31 00:41:25;;;;;;;;;;;;;;;20.64;40.29;101764.78;4130067;28;19926;-58
2023/05/31 00:43:27;;;;;;;;;;;;;;;20.63;40.18;101763.06;4119908;28;20011;-58
2023/05/31 00:45:28;;;;;;;;;;;;;;;20.63;40.29;101763.91;4169653;28;19936;-58
2023/05/31 00:47:30;;;;;;;;;;;;;;;20.62;40.24;101758.66;4113086;28;19965;-58
2023/05/31 00:49:32;;;;;;;;;;;;;;;20.50;40.25;101737.09;4149087;28;19967;-59
2023/05/31 00:51:35;;;;;;;;;;;;;;;20.61;40.25;101759.59;4138305;28;20038;-58
2023/05/31 00:53:36;;;;;;;;;;;;;;;20.60;40.31;101756.09;4119986;28;19966;-58
2023/05/31 00:55:38;;;;;;;;;;;;;;;20.61;40.12;101751.59;4169623;28;19924;-58
2023/05/31 00:57:40;;;;;;;;;;;;;;;20.59;40.23;101744.53;4112769;28;19937;-58
2023/05/31 00:59:42;;;;;;;;;;;;;;;20.59;40.49;101749.03;4143818;28;19967;-57
2023/05/31 01:01:46;;;;;;;;;;;;;;;20.58;40.37;101752.63;4163637;28;19928;-57
2023/05/31 01:03:48;;;;;;;;;;;;;;;20.57;40.42;101754.47;4194371;28;19924;-57
2023/05/31 01:05:49;;;;;;;;;;;;;;;20.57;40.48;101746.44;4138855;28;20032;-56
2023/05/31 01:07:51;;;;;;;;;;;;;;;20.57;40.14;101751.78;4196495;28;19924;-59
2023/05/31 01:09:53;;;;;;;;;;;;;;;20.57;40.20;101750.91;4174417;28;19930;-60
2023/05/31 01:12:13;;;;;;;;;;;;;;;20.57;40.15;101745.56;4155087;28;19925;-57
2023/05/31 01:14:33;;;;;;;;;;;;;;;20.54;40.12;101737.75;4189788;28;19924;-57
2023/05/31 01:16:38;;;;;;;;;;;;;;;20.54;40.50;101740.44;4168728;28;19927;-58
2023/05/31 01:18:48;;;;;;;;;;;;;;;20.53;40.26;101741.38;4112641;28;19985;-58
2023/05/31 01:20:51;;;;;;;;;;;;;;;20.53;40.14;101744.91;4158939;28;19936;-58
2023/05/31 01:23:03;;;;;;;;;;;;;;;20.54;39.90;101740.44;4127003;28;19948;-57
2023/05/31 01:25:11;;;;;;;;;;;;;;;20.51;40.50;101746.84;4121489;28;19926;-57
2023/05/31 01:27:15;;;;;;;;;;;;;;;20.52;40.15;101737.00;4166491;28;20037;-58
2023/05/31 01:29:18;;;;;;;;;;;;;;;20.50;39.61;101733.53;4196617;28;19939;-58
2023/05/31 01:31:20;;;;;;;;;;;;;;;20.49;40.31;101743.38;4141154;28;19926;-58
2023/05/31 01:33:22;;;;;;;;;;;;;;;20.48;39.61;101728.28;4187938;28;19924;-58
2023/05/31 01:35:24;;;;;;;;;;;;;;;20.47;39.86;101734.59;4166349;28;19926;-58
2023/05/31 01:37:26;;;;;;;;;;;;;;;20.48;39.60;101730.97;4141581;28;19995;-57
2023/05/31 01:39:27;;;;;;;;;;;;;;;20.47;39.91;101734.59;4121006;28;19934;-57
2023/05/31 01:41:31;;;;;;;;;;;;;;;20.47;39.96;101725.72;4157066;28;19964;-57
2023/05/31 01:43:34;;;;;;;;;;;;;;;20.46;39.61;101724.84;4127535;28;19933;-58
2023/05/31 01:45:36;;;;;;;;;;;;;;;20.46;39.87;101730.19;4119325;28;19925;-58
2023/05/31 01:47:40;;;;;;;;;;;;;;;20.44;39.31;101724.09;4169106;28;19973;-58
2023/05/31 01:49:42;;;;;;;;;;;;;;;20.43;39.48;101717.88;4112397;28;19926;-57
2023/05/31 01:51:44;;;;;;;;;;;;;;;20.42;39.37;101723.34;4152478;28;20397;-56
2023/05/31 01:53:46;;;;;;;;;;;;;;;20.42;39.21;101716.16;4132497;28;19929;-58
2023/05/31 01:55:48;;;;;;;;;;;;;;;20.42;39.45;101724.19;4142485;28;19933;-58
2023/05/31 01:57:51;;;;;;;;;;;;;;;20.41;39.71;101717.16;4169021;28;19988;-59
2023/05/31 01:59:56;;;;;;;;;;;;;;;20.40;39.52;101718.09;4112713;28;19926;-58
2023/05/31 02:01:58;;;;;;;;;;;;;;;20.40;39.24;101719.88;4109678;28;20031;-58
2023/05/31 02:04:00;;;;;;;;;;;;;;;20.37;39.32;101731.63;4140253;28;19966;-58
2023/05/31 02:06:02;;;;;;;;;;;;;;;20.37;39.20;101720.09;4105391;28;19927;-58
2023/05/31 02:08:03;;;;;;;;;;;;;;;20.37;39.34;101717.41;4168827;28;19925;-57
2023/05/31 02:10:05;;;;;;;;;;;;;;;20.36;39.27;101718.38;4112240;28;19934;-58
2023/05/31 02:12:07;;;;;;;;;;;;;;;20.35;39.25;101716.66;4140175;28;19932;-58
2023/05/31 02:14:09;;;;;;;;;;;;;;;20.34;39.47;101721.16;4145521;28;19926;-58
2023/05/31 02:16:11;;;;;;;;;;;;;;;20.34;39.48;101714.91;4113804;28;19930;-58
2023/05/31 02:18:16;;;;;;;;;;;;;;;20.33;39.16;101719.41;4173095;28;19960;-58
2023/05/31 02:20:18;;;;;;;;;;;;;;;20.32;39.10;101714.19;4112429;28;19941;-58
2023/05/31 02:22:20;;;;;;;;;;;;;;;20.33;39.31;101713.19;4134393;28;19928;-58
2023/05/31 02:24:22;;;;;;;;;;;;;;;20.33;39.87;101702.50;4150864;28;20007;-58
2023/05/31 02:26:23;;;;;;;;;;;;;;;20.31;39.23;101707.97;4111943;28;20057;-58
2023/05/31 02:28:25;;;;;;;;;;;;;;;20.32;39.92;101711.50;4173576;28;20027;-57
2023/05/31 02:30:27;;;;;;;;;;;;;;;20.30;39.31;101708.06;4112846;28;19929;-58
2023/05/31 02:32:28;;;;;;;;;;;;;;;20.29;39.35;101709.00;4125930;28;20315;-57
2023/05/31 02:34:31;;;;;;;;;;;;;;;20.28;39.29;101702.81;4195933;28;19970;-58
2023/05/31 02:36:33;;;;;;;;;;;;;;;20.26;39.49;101700.22;4196016;28;19956;-58
2023/05/31 02:38:34;;;;;;;;;;;;;;;20.26;39.30;101700.22;4179713;28;19924;-58
2023/05/31 02:40:36;;;;;;;;;;;;;;;20.26;39.25;101700.22;4123336;28;20201;-58
2023/05/31 02:42:38;;;;;;;;;;;;;;;20.27;39.58;101703.78;4144273;28;19953;-58
2023/05/31 02:44:40;;;;;;;;;;;;;;;20.25;39.15;101706.50;4169744;28;19932;-58
2023/05/31 02:46:41;;;;;;;;;;;;;;;20.24;39.43;101703.94;4113624;28;19926;-58
2023/05/31 02:48:43;;;;;;;;;;;;;;;20.23;39.21;101703.09;4160424;28;19924;-58
2023/05/31 02:50:44;;;;;;;;;;;;;;;20.23;39.43;101705.75;4131788;28;19926;-58
2023/05/31 02:52:46;;;;;;;;;;;;;;;20.23;39.38;101696.88;4120553;28;19970;-57
2023/05/31 02:54:47;;;;;;;;;;;;;;;20.24;39.27;101701.28;4171198;28;19930;-57
2023/05/31 02:56:50;;;;;;;;;;;;;;;20.22;39.23;101697.81;4113153;28;19926;-57
2023/05/31 02:58:52;;;;;;;;;;;;;;;20.21;39.34;101696.97;4151345;28;20366;-58
2023/05/31 03:00:53;;;;;;;;;;;;;;;20.21;39.13;101693.47;4138094;28;20013;-58
2023/05/31 03:02:55;;;;;;;;;;;;;;;20.20;39.20;101691.75;4120853;28;19926;-57
2023/05/31 03:04:56;;;;;;;;;;;;;;;20.19;39.36;101698.03;4127170;28;19954;-58
2023/05/31 03:06:58;;;;;;;;;;;;;;;20.18;39.57;101696.31;4198641;28;19935;-58
2023/05/31 03:09:00;;;;;;;;;;;;;;;20.16;39.48;101691.06;4169596;28;19930;-59
2023/05/31 03:11:01;;;;;;;;;;;;;;;20.17;39.66;101686.56;4163578;28;20340;-58
2023/05/31 03:13:03;;;;;;;;;;;;;;;20.16;39.54;101692.84;4197577;28;20285;-58
2023/05/31 03:15:05;;;;;;;;;;;;;;;20.16;39.42;101685.72;4136335;28;19926;-58
2023/05/31 03:17:07;;;;;;;;;;;;;;;20.15;39.39;101678.66;4198388;28;19935;-57
2023/05/31 03:19:09;;;;;;;;;;;;;;;20.15;39.55;101684.00;4177637;28;20463;-58
2023/05/31 03:21:11;;;;;;;;;;;;;;;20.14;39.44;101684.94;4155183;28;20055;-58
2023/05/31 03:23:13;;;;;;;;;;;;;;;20.14;39.63;101684.94;4198105;28;20365;-59
2023/05/31 03:25:15;;;;;;;;;;;;;;;20.15;39.91;101683.16;4138689;28;19926;-60
2023/05/31 03:27:16;;;;;;;;;;;;;;;20.15;39.68;101686.66;4128962;28;20463;-59
2023/05/31 03:29:18;;;;;;;;;;;;;;;20.15;39.56;101686.66;4126036;28;20398;-59
2023/05/31 03:31:20;;;;;;;;;;;;;;;20.16;39.70;101695.53;4163715;28;20337;-59
2023/05/31 03:33:22;;;;;;;;;;;;;;;20.15;39.52;101685.81;4114403;28;20032;-59
2023/05/31 03:35:24;;;;;;;;;;;;;;;20.14;39.49;101692.13;4114843;28;20426;-59
2023/05/31 03:37:25;;;;;;;;;;;;;;;20.14;39.38;101695.63;4186780;28;19963;-59
2023/05/31 03:39:27;;;;;;;;;;;;;;;20.13;39.63;101693.91;4129342;28;19926;-59
2023/05/31 03:41:29;;;;;;;;;;;;;;;20.13;39.81;101693.91;4111912;28;19949;-59
2023/05/31 03:43:31;;;;;;;;;;;;;;;20.14;39.65;101694.78;4112298;28;19984;-59
2023/05/31 03:45:32;;;;;;;;;;;;;;;20.14;39.87;101692.13;4156426;28;19924;-59
2023/05/31 03:47:35;;;;;;;;;;;;;;;20.14;39.46;101708.13;4133678;28;19933;-59
2023/05/31 03:49:36;;;;;;;;;;;;;;;20.13;39.42;101691.25;4120594;28;19932;-59
2023/05/31 03:51:38;;;;;;;;;;;;;;;20.11;39.65;101699.34;4169227;28;19948;-58
2023/05/31 03:53:40;;;;;;;;;;;;;;;20.11;39.70;101698.50;4113752;28;19949;-59
2023/05/31 03:55:42;;;;;;;;;;;;;;;20.09;39.47;101700.41;4147225;28;19948;-59
2023/05/31 03:57:43;;;;;;;;;;;;;;;20.09;39.40;101711.06;4141611;28;19926;-59
2023/05/31 03:59:45;;;;;;;;;;;;;;;20.07;39.74;101708.50;4120292;28;19961;-59
2023/05/31 04:01:47;;;;;;;;;;;;;;;20.07;39.46;101702.28;4165760;28;19924;-58
2023/05/31 04:03:49;;;;;;;;;;;;;;;20.07;39.73;101712.97;4118589;28;19929;-59
2023/05/31 04:05:51;;;;;;;;;;;;;;;20.06;39.63;101713.91;4140023;28;19924;-58
2023/05/31 04:07:52;;;;;;;;;;;;;;;20.05;39.40;101710.41;4149826;28;19980;-58
2023/05/31 04:09:54;;;;;;;;;;;;;;;20.04;39.38;101713.19;4114447;28;20332;-58
2023/05/31 04:11:55;;;;;;;;;;;;;;;20.03;39.73;101704.28;4111094;28;19926;-58
2023/05/31 04:13:58;;;;;;;;;;;;;;;20.03;39.62;101714.97;4113585;28;19934;-59
2023/05/31 04:15:59;;;;;;;;;;;;;;;20.02;39.76;101720.41;4131536;28;19937;-58
2023/05/31 04:18:01;;;;;;;;;;;;;;;20.03;39.43;101719.47;4157922;28;20307;-57
2023/05/31 04:20:09;;;;;;;;;;;;;;;20.01;39.74;101716.84;4113165;28;19940;-58
2023/05/31 04:22:11;;;;;;;;;;;;;;;20.01;39.56;101718.69;4142990;28;19933;-57
2023/05/31 04:24:13;;;;;;;;;;;;;;;19.99;39.53;101716.13;4195929;28;19967;-58
2023/05/31 04:26:16;;;;;;;;;;;;;;;20.00;39.71;101717.84;4174753;28;19941;-57
2023/05/31 04:28:19;;;;;;;;;;;;;;;20.00;39.52;101712.50;4160599;28;19934;-57
2023/05/31 04:30:23;;;;;;;;;;;;;;;19.99;39.77;101724.13;4113352;28;20000;-58
2023/05/31 04:32:25;;;;;;;;;;;;;;;20.00;39.34;101719.63;4167861;28;20262;-58
2023/05/31 04:34:28;;;;;;;;;;;;;;;19.98;39.45;101714.38;4127329;28;19937;-58
2023/05/31 04:36:32;;;;;;;;;;;;;;;19.99;39.84;101717.91;4144117;28;19925;-58
2023/05/31 04:38:34;;;;;;;;;;;;;;;19.97;39.77;101717.16;4117841;28;19926;-58
2023/05/31 04:40:36;;;;;;;;;;;;;;;19.97;39.58;101720.69;4113289;28;19929;-57
2023/05/31 04:42:38;;;;;;;;;;;;;;;19.98;39.82;101710.84;4162276;28;20279;-58
2023/05/31 04:44:41;;;;;;;;;;;;;;;19.98;39.90;101708.16;4125153;28;19934;-57
2023/05/31 04:46:42;;;;;;;;;;;;;;;19.98;39.53;101716.19;4120181;28;20311;-57
2023/05/31 04:48:44;;;;;;;;;;;;;;;19.98;39.84;101706.38;4169891;28;19930;-58
2023/05/31 04:50:46;;;;;;;;;;;;;;;19.97;39.84;101710.00;4112974;28;19926;-58
2023/05/31 04:52:47;;;;;;;;;;;;;;;19.98;39.76;101716.19;4154730;28;19931;-59
2023/05/31 04:54:49;;;;;;;;;;;;;;;19.98;39.67;101719.72;4132670;28;19930;-58
2023/05/31 04:56:50;;;;;;;;;;;;;;;19.98;39.86;101716.19;4120155;28;19978;-58
2023/05/31 04:58:52;;;;;;;;;;;;;;;19.98;39.71;101717.06;4169503;28;19995;-58
2023/05/31 05:00:54;;;;;;;;;;;;;;;19.99;39.88;101717.91;4113236;28;19926;-58
2023/05/31 05:02:56;;;;;;;;;;;;;;;19.99;39.59;101720.56;4144773;28;20024;-58
2023/05/31 05:04:57;;;;;;;;;;;;;;;19.97;39.64;101717.16;4150730;28;19934;-58
2023/05/31 05:06:59;;;;;;;;;;;;;;;19.98;39.66;101721.53;4119211;28;19976;-58
2023/05/31 05:09:00;;;;;;;;;;;;;;;19.96;39.67;101716.28;4139694;28;19930;-58
2023/05/31 05:11:02;;;;;;;;;;;;;;;19.95;39.64;101720.78;4196894;28;19951;-57
2023/05/31 05:13:04;;;;;;;;;;;;;;;19.95;39.84;101720.78;4169627;28;19930;-58
2023/05/31 05:15:06;;;;;;;;;;;;;;;19.95;39.75;101717.22;4159807;28;20023;-58
2023/05/31 05:17:07;;;;;;;;;;;;;;;19.94;39.73;101723.53;4196828;28;19928;-58
2023/05/31 05:19:09;;;;;;;;;;;;;;;19.95;39.87;101717.22;4112981;28;19930;-59
2023/05/31 05:21:10;;;;;;;;;;;;;;;19.94;39.90;101719.06;4196839;28;20288;-57
2023/05/31 05:23:12;;;;;;;;;;;;;;;19.95;39.73;101717.22;4178557;28;19982;-58
2023/05/31 05:25:13;;;;;;;;;;;;;;;19.94;39.60;101721.72;4150703;28;19924;-57
2023/05/31 05:27:15;;;;;;;;;;;;;;;19.94;39.79;101708.38;4131839;28;19934;-57
2023/05/31 05:29:17;;;;;;;;;;;;;;;19.93;39.67;101714.66;4167006;28;19960;-57
2023/05/31 05:31:18;;;;;;;;;;;;;;;19.93;39.46;101722.66;4120509;28;19933;-58
2023/05/31 05:33:20;;;;;;;;;;;;;;;19.94;39.83;101718.22;4118489;28;19934;-58
2023/05/31 05:35:21;;;;;;;;;;;;;;;19.93;39.90;101716.47;4142378;28;20023;-58
2023/05/31 05:37:23;;;;;;;;;;;;;;;19.94;39.48;101728.88;4196438;28;19978;-58
2023/05/31 05:39:24;;;;;;;;;;;;;;;19.92;39.49;101720.94;4168518;28;19931;-58
2023/05/31 05:41:26;;;;;;;;;;;;;;;19.93;39.66;101719.16;4128255;28;19930;-58
2023/05/31 05:43:30;;;;;;;;;;;;;;;19.92;39.73;101723.63;4119304;28;20384;-58
2023/05/31 05:45:31;;;;;;;;;;;;;;;19.91;39.55;101721.88;4169251;28;19930;-58
2023/05/31 05:47:34;;;;;;;;;;;;;;;19.90;39.56;101720.19;4112515;28;19988;-58
2023/05/31 05:49:36;;;;;;;;;;;;;;;19.91;39.53;101721.03;4151607;28;20417;-58
2023/05/31 05:51:38;;;;;;;;;;;;;;;19.89;39.60;101731.81;4134641;28;20445;-57
2023/05/31 05:53:39;;;;;;;;;;;;;;;19.90;39.51;101730.00;4119031;28;19974;-58
2023/05/31 05:55:47;;;;;;;;;;;;;;;19.89;39.77;101725.59;4169042;28;19928;-58
2023/05/31 05:57:49;;;;;;;;;;;;;;;19.90;39.61;101727.31;4112380;28;20009;-58
2023/05/31 05:59:50;;;;;;;;;;;;;;;19.89;39.64;101725.59;4110853;28;19937;-58
2023/05/31 06:01:52;;;;;;;;;;;;;;;19.89;39.73;101718.47;4167155;28;20028;-58
2023/05/31 06:03:55;;;;;;;;;;;;;;;19.89;39.65;101720.25;4193140;28;19931;-58
2023/05/31 06:05:56;;;;;;;;;;;;;;;19.89;39.79;101726.47;4139607;28;20342;-58
2023/05/31 06:07:58;;;;;;;;;;;;;;;19.88;39.70;101727.44;4196334;28;19925;-58
2023/05/31 06:10:00;;;;;;;;;;;;;;;19.87;39.98;101733.72;4168626;28;19930;-59
2023/05/31 06:12:02;;;;;;;;;;;;;;;19.88;39.82;101731.88;4160485;28;20389;-59
2023/05/31 06:14:04;;;;;;;;;;;;;;;19.87;39.79;101727.53;4197816;28;19931;-59
2023/05/31 06:16:05;;;;;;;;;;;;;;;19.88;40.12;101727.44;4134421;28;19927;-59
2023/05/31 06:18:08;;;;;;;;;;;;;;;19.88;39.76;101722.09;4199184;28;19940;-59
2023/05/31 06:20:10;;;;;;;;;;;;;;;19.87;39.75;101723.03;4179428;28;19967;-59
2023/05/31 06:22:12;;;;;;;;;;;;;;;19.88;39.68;101723.88;4144831;28;19932;-59
2023/05/31 06:24:14;;;;;;;;;;;;;;;19.88;39.51;101729.22;4115046;28;19933;-58
2023/05/31 06:26:15;;;;;;;;;;;;;;;19.86;39.82;101720.47;4149987;28;19926;-60
2023/05/31 06:28:17;;;;;;;;;;;;;;;19.86;39.91;101725.81;4194748;28;19925;-59
2023/05/31 06:30:19;;;;;;;;;;;;;;;19.86;39.81;101725.81;4187302;28;19925;-59
2023/05/31 06:32:20;;;;;;;;;;;;;;;19.85;39.76;101722.25;4146352;28;19932;-60
2023/05/31 06:34:22;;;;;;;;;;;;;;;19.86;39.75;101725.81;4199311;28;19951;-59
2023/05/31 06:36:24;;;;;;;;;;;;;;;19.86;40.15;101723.97;4177771;28;19925;-59
2023/05/31 06:38:26;;;;;;;;;;;;;;;19.85;39.56;101724.94;4159637;28;19947;-59
2023/05/31 06:40:27;;;;;;;;;;;;;;;19.85;39.92;101729.41;4191821;28;19979;-60
2023/05/31 06:42:29;;;;;;;;;;;;;;;19.75;39.64;101702.38;4141037;28;19924;-60
2023/05/31 06:44:31;;;;;;;;;;;;;;;19.85;39.86;101721.41;4199073;28;19979;-59
2023/05/31 06:46:41;;;;;;;;;;;;;;;19.85;40.12;101724.06;4150341;28;19926;-58
2023/05/31 06:48:43;;;;;;;;;;;;;;;19.85;40.09;101727.59;4183985;28;20302;-59
2023/05/31 06:50:44;;;;;;;;;;;;;;;19.86;39.91;101728.47;4191935;28;20024;-59
2023/05/31 06:52:46;;;;;;;;;;;;;;;19.87;39.85;101723.03;4140726;28;19967;-59
2023/05/31 06:54:49;;;;;;;;;;;;;;;19.87;40.73;101724.84;4199085;28;19964;-58
2023/05/31 06:56:51;;;;;;;;;;;;;;;19.87;40.79;101723.03;4136105;28;19969;-59
2023/05/31 06:58:52;;;;;;;;;;;;;;;19.88;41.16;101718.53;4176018;28;20389;-59
2023/05/31 07:00:54;;;;;;;;;;;;;;;19.88;40.98;101715.88;4191276;28;19934;-59
2023/05/31 07:02:55;;;;;;;;;;;;;;;19.89;41.06;101718.47;4140501;28;19933;-59
2023/05/31 07:04:59;;;;;;;;;;;;;;;19.91;41.09;101711.22;4152928;28;19930;-59
2023/05/31 07:07:02;;;;;;;;;;;;;;;19.94;41.40;101715.53;4146834;28;19943;-58
2023/05/31 07:09:04;;;;;;;;;;;;;;;19.94;40.87;101707.53;4175449;28;19925;-59
2023/05/31 07:11:06;;;;;;;;;;;;;;;19.98;41.41;101710.84;4120114;28;20372;-59
2023/05/31 07:13:08;;;;;;;;;;;;;;;19.99;40.80;101710.78;4170259;28;19967;-59
2023/05/31 07:15:10;;;;;;;;;;;;;;;20.01;41.26;101702.66;4114049;28;19930;-59
2023/05/31 07:17:11;;;;;;;;;;;;;;;20.03;41.06;101700.78;4139831;28;20332;-58
2023/05/31 07:19:13;;;;;;;;;;;;;;;20.04;41.03;101691.81;4151759;28;19926;-58
2023/05/31 07:21:14;;;;;;;;;;;;;;;20.05;41.09;101690.84;4114309;28;19927;-59
2023/05/31 07:23:16;;;;;;;;;;;;;;;20.07;41.16;101694.28;4176392;28;19959;-59
2023/05/31 07:25:17;;;;;;;;;;;;;;;20.09;41.13;101697.72;4097544;28;19984;-59
2023/05/31 07:27:19;;;;;;;;;;;;;;;20.13;41.31;101698.41;4127070;28;20013;-60
2023/05/31 07:29:21;;;;;;;;;;;;;;;20.13;41.06;101701.91;4159908;28;19930;-59
2023/05/31 07:31:23;;;;;;;;;;;;;;;20.14;40.88;101706.31;4114204;28;19985;-59
2023/05/31 07:33:24;;;;;;;;;;;;;;;20.15;41.02;101694.69;4167684;28;20011;-59
2023/05/31 07:35:30;;;;;;;;;;;;;;;20.15;40.78;101686.66;4198333;28;19924;-59
2023/05/31 07:37:31;;;;;;;;;;;;;;;20.17;41.12;101687.44;4165002;28;19953;-58
2023/05/31 07:39:33;;;;;;;;;;;;;;;20.18;41.23;101690.97;4161924;28;19933;-59
2023/05/31 07:41:34;;;;;;;;;;;;;;;20.18;41.17;101678.44;4114054;28;19934;-59
2023/05/31 07:43:36;;;;;;;;;;;;;;;20.19;40.94;101688.19;4160937;28;19971;-59
2023/05/31 07:45:38;;;;;;;;;;;;;;;20.22;40.73;101692.47;4127592;28;19927;-58
2023/05/31 07:47:40;;;;;;;;;;;;;;;20.21;40.92;101682.78;4120643;28;19980;-58
2023/05/31 07:49:41;;;;;;;;;;;;;;;20.21;40.90;101696.13;4170735;28;20009;-58
2023/05/31 07:51:43;;;;;;;;;;;;;;;20.21;40.73;101704.16;4114146;28;20403;-58
2023/05/31 07:53:45;;;;;;;;;;;;;;;20.19;41.13;101685.53;4152769;28;19925;-59
2023/05/31 07:55:47;;;;;;;;;;;;;;;20.20;40.80;101676.56;4136627;28;19926;-58
2023/05/31 07:57:49;;;;;;;;;;;;;;;20.22;40.86;101682.69;4120211;28;19940;-59
2023/05/31 07:59:51;;;;;;;;;;;;;;;20.24;40.91;101694.13;4170912;28;19930;-60
2023/05/31 08:01:52;;;;;;;;;;;;;;;20.23;40.86;101686.19;4112905;28;19926;-58
2023/05/31 08:03:54;;;;;;;;;;;;;;;20.20;41.00;101687.25;4120796;28;19974;-59
2023/05/31 08:05:56;;;;;;;;;;;;;;;20.18;40.83;101686.47;4167721;28;19925;-56
2023/05/31 08:07:59;;;;;;;;;;;;;;;20.20;40.97;101681.91;4192943;28;19924;-60
2023/05/31 08:10:01;;;;;;;;;;;;;;;20.23;41.12;101686.19;4140135;28;19934;-57
2023/05/31 08:12:02;;;;;;;;;;;;;;;20.24;40.98;101683.44;4196603;28;20130;-57
2023/05/31 08:14:04;;;;;;;;;;;;;;;20.26;40.79;101678.00;4172529;28;20403;-58
2023/05/31 08:16:06;;;;;;;;;;;;;;;20.27;40.66;101677.91;4149668;28;20023;-58
2023/05/31 08:18:08;;;;;;;;;;;;;;;20.27;40.70;101669.88;4107460;28;19930;-57
2023/05/31 08:20:15;;;;;;;;;;;;;;;20.27;40.60;101677.91;4176089;28;19925;-62
2023/05/31 08:22:17;;;;;;;;;;;;;;;20.29;42.13;101676.94;4096330;28;19926;-62
2023/05/31 08:24:19;;;;;;;;;;;;;;;20.32;41.00;101671.44;4132253;28;19928;-60
2023/05/31 08:26:21;;;;;;;;;;;;;;;20.33;41.26;101679.34;4115269;28;19930;-61
2023/05/31 08:28:23;;;;;;;;;;;;;;;20.36;42.33;101679.13;4165772;28;19944;-61
2023/05/31 08:30:25;;;;;;;;;;;;;;;20.39;41.71;101675.41;4175893;28;19924;-60
2023/05/31 08:32:26;;;;;;;;;;;;;;;20.39;41.29;101662.94;4114587;28;20016;-61
2023/05/31 08:34:28;;;;;;;;;;;;;;;20.40;42.09;101650.41;4111076;28;19934;-59
2023/05/31 08:36:29;;;;;;;;;;;;;;;20.65;42.80;101670.28;4121949;28;19930;-58
2023/05/31 08:38:32;;;;;;;;;;;;;;;20.76;41.56;101666.97;4146120;28;19927;-61
2023/05/31 08:40:36;;;;;;;;;;;;;;;20.79;41.19;101654.25;4134210;28;19926;-58
2023/05/31 08:42:58;;;;;;;;;;;;;;;20.82;41.01;101662.06;4127145;28;19926;-59
2023/05/31 08:45:00;;;;;;;;;;;;;;;20.74;40.39;101653.66;4118297;28;19934;-59
2023/05/31 08:47:22;;;;;;;;;;;;;;;20.74;40.47;101659.00;4154288;28;20480;-59
2023/05/31 08:49:24;;;;;;;;;;;;;;;20.75;40.46;101652.72;4189875;28;20298;-59
2023/05/31 08:51:25;;;;;;;;;;;;;;;20.81;40.10;101659.50;4165067;28;19924;-60
2023/05/31 08:53:28;;;;;;;;;;;;;;;20.82;40.28;101656.72;4105419;28;19927;-59
2023/05/31 08:55:30;;;;;;;;;;;;;;;20.91;41.54;101655.25;4121998;28;20041;-59
2023/05/31 08:57:33;;;;;;;;;;;;;;;20.99;41.00;101649.44;4118208;28;20124;-63
2023/05/31 08:59:36;;;;;;;;;;;;;;;21.06;40.99;101645.41;4112396;28;19927;-62
2023/05/31 09:01:38;;;;;;;;;;;;;;;21.08;40.27;101647.97;4131125;28;20311;-61
2023/05/31 09:03:40;;;;;;;;;;;;;;;21.11;39.51;101645.09;4110849;28;19930;-59
2023/05/31 09:05:41;;;;;;;;;;;;;;;21.14;40.25;101647.56;4135281;28;20053;-61
2023/05/31 09:07:43;;;;;;;;;;;;;;;21.21;39.93;101638.19;4154059;28;20351;-56
2023/05/31 09:09:45;;;;;;;;;;;;;;;21.25;40.67;101633.47;4126737;28;19934;-59
2023/05/31 09:11:46;;;;;;;;;;;;;;;21.32;40.38;101650.84;4136634;28;19969;-59
2023/05/31 09:13:48;;;;;;;;;;;;;;;21.36;40.58;101650.53;4117554;28;20419;-60
2023/05/31 09:15:51;;;;;;;;;;;;;;;21.42;39.80;101630.53;4119000;28;19930;-58
2023/05/31 09:17:52;;;;;;;;;;;;;;;21.54;39.33;101642.22;4124721;28;19960;-60
2023/05/31 09:19:55;;;;;;;;;;;;;;;21.54;39.84;101637.75;4123031;28;19926;-57
2023/05/31 09:21:57;;;;;;;;;;;;;;;21.60;39.83;101641.00;4119342;28;20414;-58
2023/05/31 09:23:59;;;;;;;;;;;;;;;21.60;39.86;101636.50;4110998;28;20375;-59
2023/05/31 09:26:01;;;;;;;;;;;;;;;21.63;39.92;101636.31;4120683;28;19962;-58
2023/05/31 09:28:02;;;;;;;;;;;;;;;21.70;39.57;101624.22;4126902;28;19969;-60
2023/05/31 09:30:11;;;;;;;;;;;;;;;21.76;39.88;101628.28;4111407;28;20369;-59
2023/05/31 09:32:13;;;;;;;;;;;;;;;21.76;39.50;101630.94;4118342;28;19930;-60
2023/05/31 09:34:26;;;;;;;;;;;;;;;21.79;39.41;101613.84;4118376;28;19926;-59
2023/05/31 09:36:28;;;;;;;;;;;;;;;21.80;39.45;101616.41;4110835;28;19927;-59
2023/05/31 09:38:33;;;;;;;;;;;;;;;21.88;39.67;101607.81;4131854;28;20017;-63
2023/05/31 09:40:35;;;;;;;;;;;;;;;21.96;39.00;101618.88;4109858;28;20197;-64
2023/05/31 09:42:36;;;;;;;;;;;;;;;21.96;38.94;101620.69;4143010;28;19934;-60
2023/05/31 09:44:38;;;;;;;;;;;;;;;21.95;39.24;101614.47;4109638;28;20406;-59
2023/05/31 09:46:39;;;;;;;;;;;;;;;21.94;38.79;101611.91;4125310;28;19959;-60
2023/05/31 09:48:41;;;;;;;;;;;;;;;21.91;38.54;101607.63;4138493;28;19931;-59
2023/05/31 09:50:44;;;;;;;;;;;;;;;21.95;39.03;101613.63;4196131;28;19937;-61
2023/05/31 09:52:47;;;;;;;;;;;;;;;21.96;38.72;101610.00;4152093;28;19926;-60
2023/05/31 09:54:49;;;;;;;;;;;;;;;21.92;38.91;101611.16;4176209;28;20446;-62
2023/05/31 09:56:50;;;;;;;;;;;;;;;21.94;39.18;101603.88;4188339;28;19973;-62
2023/05/31 09:58:55;;;;;;;;;;;;;;;21.92;38.83;101605.78;4138646;28;19975;-60
2023/05/31 10:01:00;;;;;;;;;;;;;;;21.90;39.06;101603.22;4143701;28;19933;-61
2023/05/31 10:03:02;;;;;;;;;;;;;;;21.89;38.69;101598.84;4115438;28;20024;-60
2023/05/31 10:05:05;;;;;;;;;;;;;;;21.93;38.58;101591.44;4123207;28;19930;-60
2023/05/31 10:07:07;;;;;;;;;;;;;;;21.95;40.33;101601.09;4109485;28;19934;-58
2023/05/31 10:09:09;;;;;;;;;;;;;;;21.99;39.21;101594.56;4122852;28;19927;-59
2023/05/31 10:11:13;;;;;;;;;;;;;;;22.03;39.23;101589.84;4104361;28;19938;-64
2023/05/31 10:13:17;;;;;;;;;;;;;;;22.14;38.99;101597.09;4130825;28;19926;-59
2023/05/31 10:15:21;;;;;;;;;;;;;;;22.26;39.51;101585.53;4113867;28;20372;-60
2023/05/31 10:17:25;;;;;;;;;;;;;;;22.26;38.87;101582.84;4112726;28;19931;-58
2023/05/31 10:19:31;;;;;;;;;;;;;;;22.32;38.98;101582.41;4133840;28;19938;-60
2023/05/31 10:21:34;;;;;;;;;;;;;;;22.30;38.73;101578.13;4176714;28;19930;-59
2023/05/31 10:23:49;;;;;;;;;;;;;;;22.35;38.65;101592.06;4140713;28;19924;-57
2023/05/31 10:26:20;;;;;;;;;;;;;;;22.34;38.75;101577.78;4174952;28;19925;-64
2023/05/31 10:28:25;;;;;;;;;;;;;;;22.37;38.33;101568.69;4140298;28;20372;-60